sensor_id;sensor_type;location;lat;lon;timestamp;P1;durP1;ratioP1;P2;durP2;ratioP2
16270;SDS011;8243;49.048;8.396;2023-02-08T00:01:07;13.37;;;8.70;;
16270;SDS011;8243;49.048;8.396;2023-02-08T00:03:34;13.23;;;8.90;;
16270;SDS011;8243;49.048;8.396;2023-02-08T00:05:59;12.47;;;8.60;;
16270;SDS011;8243;49.048;8.396;2023-02-08T00:08:25;12.50;;;8.70;;
16270;SDS011;8243;49.048;8.396;2023-02-08T00:10:51;14.10;;;9.10;;
16270;SDS011;8243;49.048;8.396;2023-02-08T00:13:16;11.90;;;9.17;;
16270;SDS011;8243;49.048;8.396;2023-02-08T00:15:43;12.47;;;8.93;;
16270;SDS011;8243;49.048;8.396;2023-02-08T00:18:09;14.10;;;8.67;;
16270;SDS011;8243;49.048;8.396;2023-02-08T00:20:38;12.43;;;7.67;;
16270;SDS011;8243;49.048;8.396;2023-02-08T00:23:05;11.20;;;7.33;;
16270;SDS011;8243;49.048;8.396;2023-02-08T00:25:31;10.13;;;7.57;;
16270;SDS011;8243;49.048;8.396;2023-02-08T00:27:57;12.17;;;8.10;;
16270;SDS011;8243;49.048;8.396;2023-02-08T00:30:22;13.53;;;8.47;;
16270;SDS011;8243;49.048;8.396;2023-02-08T00:32:48;14.83;;;9.07;;
16270;SDS011;8243;49.048;8.396;2023-02-08T00:35:13;13.23;;;8.57;;
16270;SDS011;8243;49.048;8.396;2023-02-08T00:37:39;16.73;;;8.97;;
16270;SDS011;8243;49.048;8.396;2023-02-08T00:40:05;13.10;;;8.87;;
16270;SDS011;8243;49.048;8.396;2023-02-08T00:42:31;12.63;;;8.77;;
16270;SDS011;8243;49.048;8.396;2023-02-08T00:44:57;11.63;;;8.07;;
16270;SDS011;8243;49.048;8.396;2023-02-08T00:47:22;15.40;;;8.90;;
16270;SDS011;8243;49.048;8.396;2023-02-08T00:49:48;10.33;;;8.27;;
16270;SDS011;8243;49.048;8.396;2023-02-08T00:52:14;12.23;;;8.73;;
16270;SDS011;8243;49.048;8.396;2023-02-08T00:54:40;13.40;;;8.57;;
16270;SDS011;8243;49.048;8.396;2023-02-08T00:57:06;14.13;;;9.57;;
16270;SDS011;8243;49.048;8.396;2023-02-08T00:59:32;13.03;;;8.30;;
16270;SDS011;8243;49.048;8.396;2023-02-08T01:01:58;13.77;;;8.73;;
16270;SDS011;8243;49.048;8.396;2023-02-08T01:04:23;11.80;;;8.83;;
16270;SDS011;8243;49.048;8.396;2023-02-08T01:06:49;12.20;;;8.70;;
16270;SDS011;8243;49.048;8.396;2023-02-08T01:09:15;11.57;;;8.80;;
16270;SDS011;8243;49.048;8.396;2023-02-08T01:11:40;14.17;;;9.27;;
16270;SDS011;8243;49.048;8.396;2023-02-08T01:14:06;12.77;;;9.03;;
16270;SDS011;8243;49.048;8.396;2023-02-08T01:16:32;13.13;;;8.23;;
16270;SDS011;8243;49.048;8.396;2023-02-08T01:18:59;12.60;;;8.03;;
16270;SDS011;8243;49.048;8.396;2023-02-08T01:21:26;11.00;;;8.50;;
16270;SDS011;8243;49.048;8.396;2023-02-08T01:23:54;13.60;;;8.20;;
16270;SDS011;8243;49.048;8.396;2023-02-08T01:26:21;12.53;;;9.30;;
16270;SDS011;8243;49.048;8.396;2023-02-08T01:28:47;11.10;;;7.67;;
16270;SDS011;8243;49.048;8.396;2023-02-08T01:31:15;12.53;;;8.13;;
16270;SDS011;8243;49.048;8.396;2023-02-08T01:33:42;13.70;;;8.83;;
16270;SDS011;8243;49.048;8.396;2023-02-08T01:36:08;11.40;;;8.67;;
16270;SDS011;8243;49.048;8.396;2023-02-08T01:38:34;12.20;;;8.70;;
16270;SDS011;8243;49.048;8.396;2023-02-08T01:41:00;12.70;;;8.80;;
16270;SDS011;8243;49.048;8.396;2023-02-08T01:43:28;13.00;;;8.57;;
16270;SDS011;8243;49.048;8.396;2023-02-08T01:45:58;12.20;;;7.83;;
16270;SDS011;8243;49.048;8.396;2023-02-08T01:48:25;11.20;;;7.63;;
16270;SDS011;8243;49.048;8.396;2023-02-08T01:51:04;11.17;;;8.20;;
16270;SDS011;8243;49.048;8.396;2023-02-08T01:53:35;12.33;;;8.43;;
16270;SDS011;8243;49.048;8.396;2023-02-08T01:56:03;12.83;;;8.70;;
16270;SDS011;8243;49.048;8.396;2023-02-08T01:58:33;13.17;;;8.53;;
16270;SDS011;8243;49.048;8.396;2023-02-08T02:01:02;12.30;;;8.00;;
16270;SDS011;8243;49.048;8.396;2023-02-08T02:03:28;11.03;;;7.33;;
16270;SDS011;8243;49.048;8.396;2023-02-08T02:05:55;11.60;;;7.87;;
16270;SDS011;8243;49.048;8.396;2023-02-08T02:08:26;11.57;;;7.53;;
16270;SDS011;8243;49.048;8.396;2023-02-08T02:10:51;12.17;;;8.07;;
16270;SDS011;8243;49.048;8.396;2023-02-08T02:13:18;12.23;;;8.50;;
16270;SDS011;8243;49.048;8.396;2023-02-08T02:15:46;12.53;;;8.60;;
16270;SDS011;8243;49.048;8.396;2023-02-08T02:18:15;11.23;;;7.90;;
16270;SDS011;8243;49.048;8.396;2023-02-08T02:26:12;11.00;;;8.27;;
16270;SDS011;8243;49.048;8.396;2023-02-08T02:31:45;10.83;;;7.63;;
16270;SDS011;8243;49.048;8.396;2023-02-08T02:34:36;10.63;;;7.73;;
16270;SDS011;8243;49.048;8.396;2023-02-08T02:40:14;12.90;;;8.00;;
16270;SDS011;8243;49.048;8.396;2023-02-08T02:51:38;11.23;;;7.60;;
16270;SDS011;8243;49.048;8.396;2023-02-08T02:54:26;12.27;;;7.87;;
16270;SDS011;8243;49.048;8.396;2023-02-08T02:57:00;13.87;;;7.23;;
16270;SDS011;8243;49.048;8.396;2023-02-08T02:59:31;14.53;;;8.30;;
16270;SDS011;8243;49.048;8.396;2023-02-08T03:02:01;13.03;;;8.30;;
16270;SDS011;8243;49.048;8.396;2023-02-08T03:07:14;11.27;;;8.23;;
16270;SDS011;8243;49.048;8.396;2023-02-08T03:10:12;11.73;;;8.33;;
16270;SDS011;8243;49.048;8.396;2023-02-08T03:12:53;11.17;;;8.00;;
16270;SDS011;8243;49.048;8.396;2023-02-08T03:24:13;11.73;;;8.03;;
16270;SDS011;8243;49.048;8.396;2023-02-08T03:26:53;11.73;;;7.67;;
16270;SDS011;8243;49.048;8.396;2023-02-08T03:29:46;11.77;;;7.47;;
16270;SDS011;8243;49.048;8.396;2023-02-08T03:32:19;12.87;;;8.13;;
16270;SDS011;8243;49.048;8.396;2023-02-08T03:34:57;11.37;;;7.57;;
16270;SDS011;8243;49.048;8.396;2023-02-08T03:37:43;12.90;;;8.43;;
16270;SDS011;8243;49.048;8.396;2023-02-08T03:40:16;13.97;;;8.57;;
16270;SDS011;8243;49.048;8.396;2023-02-08T03:42:51;10.90;;;7.43;;
16270;SDS011;8243;49.048;8.396;2023-02-08T03:45:54;11.57;;;7.67;;
16270;SDS011;8243;49.048;8.396;2023-02-08T03:48:15;13.23;;;8.13;;
16270;SDS011;8243;49.048;8.396;2023-02-08T03:50:42;11.43;;;7.77;;
16270;SDS011;8243;49.048;8.396;2023-02-08T03:53:14;12.13;;;7.80;;
16270;SDS011;8243;49.048;8.396;2023-02-08T03:55:42;10.83;;;7.40;;
16270;SDS011;8243;49.048;8.396;2023-02-08T03:58:21;13.50;;;8.50;;
16270;SDS011;8243;49.048;8.396;2023-02-08T04:01:05;11.17;;;8.10;;
16270;SDS011;8243;49.048;8.396;2023-02-08T04:03:37;10.97;;;7.53;;
16270;SDS011;8243;49.048;8.396;2023-02-08T04:06:03;13.20;;;9.00;;
16270;SDS011;8243;49.048;8.396;2023-02-08T04:08:29;15.27;;;8.80;;
16270;SDS011;8243;49.048;8.396;2023-02-08T04:10:54;13.23;;;9.13;;
16270;SDS011;8243;49.048;8.396;2023-02-08T04:13:20;10.93;;;7.77;;
16270;SDS011;8243;49.048;8.396;2023-02-08T04:15:45;15.30;;;8.77;;
16270;SDS011;8243;49.048;8.396;2023-02-08T04:18:11;8.37;;;5.87;;
16270;SDS011;8243;49.048;8.396;2023-02-08T04:20:37;11.80;;;7.33;;
16270;SDS011;8243;49.048;8.396;2023-02-08T04:23:02;10.90;;;7.30;;
16270;SDS011;8243;49.048;8.396;2023-02-08T04:25:28;10.50;;;8.00;;
16270;SDS011;8243;49.048;8.396;2023-02-08T04:27:53;11.70;;;7.50;;
16270;SDS011;8243;49.048;8.396;2023-02-08T04:30:19;11.03;;;7.43;;
16270;SDS011;8243;49.048;8.396;2023-02-08T04:32:44;10.63;;;7.93;;
16270;SDS011;8243;49.048;8.396;2023-02-08T04:35:10;12.47;;;7.87;;
16270;SDS011;8243;49.048;8.396;2023-02-08T04:37:35;11.50;;;7.50;;
16270;SDS011;8243;49.048;8.396;2023-02-08T04:40:01;14.57;;;7.80;;
16270;SDS011;8243;49.048;8.396;2023-02-08T04:42:27;13.30;;;7.40;;
16270;SDS011;8243;49.048;8.396;2023-02-08T04:44:53;11.03;;;7.30;;
16270;SDS011;8243;49.048;8.396;2023-02-08T04:47:18;8.60;;;6.30;;
16270;SDS011;8243;49.048;8.396;2023-02-08T04:49:44;10.63;;;7.67;;
16270;SDS011;8243;49.048;8.396;2023-02-08T04:52:09;9.80;;;6.60;;
16270;SDS011;8243;49.048;8.396;2023-02-08T04:54:35;9.87;;;7.10;;
16270;SDS011;8243;49.048;8.396;2023-02-08T04:57:00;10.53;;;7.17;;
16270;SDS011;8243;49.048;8.396;2023-02-08T04:59:26;12.37;;;7.80;;
16270;SDS011;8243;49.048;8.396;2023-02-08T05:01:51;8.80;;;6.57;;
16270;SDS011;8243;49.048;8.396;2023-02-08T05:04:17;11.07;;;7.80;;
16270;SDS011;8243;49.048;8.396;2023-02-08T05:06:42;11.17;;;7.30;;
16270;SDS011;8243;49.048;8.396;2023-02-08T05:09:08;11.83;;;7.50;;
16270;SDS011;8243;49.048;8.396;2023-02-08T05:11:34;11.30;;;7.83;;
16270;SDS011;8243;49.048;8.396;2023-02-08T05:14:00;11.00;;;7.47;;
16270;SDS011;8243;49.048;8.396;2023-02-08T05:16:27;14.07;;;8.63;;
16270;SDS011;8243;49.048;8.396;2023-02-08T05:18:54;12.00;;;7.90;;
16270;SDS011;8243;49.048;8.396;2023-02-08T05:21:20;11.57;;;7.93;;
16270;SDS011;8243;49.048;8.396;2023-02-08T05:23:47;11.47;;;7.07;;
16270;SDS011;8243;49.048;8.396;2023-02-08T05:26:14;12.63;;;8.40;;
16270;SDS011;8243;49.048;8.396;2023-02-08T05:28:39;14.43;;;7.93;;
16270;SDS011;8243;49.048;8.396;2023-02-08T05:31:09;11.73;;;7.97;;
16270;SDS011;8243;49.048;8.396;2023-02-08T05:33:35;9.17;;;5.80;;
16270;SDS011;8243;49.048;8.396;2023-02-08T05:36:01;10.33;;;7.90;;
16270;SDS011;8243;49.048;8.396;2023-02-08T05:38:27;11.87;;;8.50;;
16270;SDS011;8243;49.048;8.396;2023-02-08T05:40:52;12.00;;;7.20;;
16270;SDS011;8243;49.048;8.396;2023-02-08T05:43:18;11.47;;;6.97;;
16270;SDS011;8243;49.048;8.396;2023-02-08T05:45:43;11.40;;;7.93;;
16270;SDS011;8243;49.048;8.396;2023-02-08T05:48:09;8.77;;;5.70;;
16270;SDS011;8243;49.048;8.396;2023-02-08T05:50:34;11.90;;;8.30;;
16270;SDS011;8243;49.048;8.396;2023-02-08T05:53:00;12.97;;;6.90;;
16270;SDS011;8243;49.048;8.396;2023-02-08T05:55:25;8.23;;;5.50;;
16270;SDS011;8243;49.048;8.396;2023-02-08T05:57:52;9.17;;;7.17;;
16270;SDS011;8243;49.048;8.396;2023-02-08T06:00:18;10.97;;;7.00;;
16270;SDS011;8243;49.048;8.396;2023-02-08T06:02:44;13.33;;;6.70;;
16270;SDS011;8243;49.048;8.396;2023-02-08T06:05:09;10.10;;;6.97;;
16270;SDS011;8243;49.048;8.396;2023-02-08T06:07:35;10.60;;;7.20;;
16270;SDS011;8243;49.048;8.396;2023-02-08T06:10:00;11.97;;;7.53;;
16270;SDS011;8243;49.048;8.396;2023-02-08T06:12:26;8.63;;;6.13;;
16270;SDS011;8243;49.048;8.396;2023-02-08T06:14:52;12.17;;;7.53;;
16270;SDS011;8243;49.048;8.396;2023-02-08T06:17:17;10.40;;;6.47;;
16270;SDS011;8243;49.048;8.396;2023-02-08T06:19:43;10.53;;;7.07;;
16270;SDS011;8243;49.048;8.396;2023-02-08T06:22:08;9.07;;;6.97;;
16270;SDS011;8243;49.048;8.396;2023-02-08T06:24:34;11.03;;;7.70;;
16270;SDS011;8243;49.048;8.396;2023-02-08T06:26:59;11.83;;;7.50;;
16270;SDS011;8243;49.048;8.396;2023-02-08T06:29:25;10.53;;;6.90;;
16270;SDS011;8243;49.048;8.396;2023-02-08T06:31:50;10.30;;;6.33;;
16270;SDS011;8243;49.048;8.396;2023-02-08T06:34:16;15.07;;;8.43;;
16270;SDS011;8243;49.048;8.396;2023-02-08T06:36:41;12.80;;;7.13;;
16270;SDS011;8243;49.048;8.396;2023-02-08T06:39:09;9.90;;;6.53;;
16270;SDS011;8243;49.048;8.396;2023-02-08T06:41:34;10.27;;;7.50;;
16270;SDS011;8243;49.048;8.396;2023-02-08T06:44:00;11.53;;;7.20;;
16270;SDS011;8243;49.048;8.396;2023-02-08T06:46:26;13.17;;;8.23;;
16270;SDS011;8243;49.048;8.396;2023-02-08T06:48:52;7.77;;;5.53;;
16270;SDS011;8243;49.048;8.396;2023-02-08T06:51:17;11.00;;;7.83;;
16270;SDS011;8243;49.048;8.396;2023-02-08T06:53:43;11.67;;;7.13;;
16270;SDS011;8243;49.048;8.396;2023-02-08T06:56:08;9.07;;;6.77;;
16270;SDS011;8243;49.048;8.396;2023-02-08T06:58:34;10.67;;;7.53;;
16270;SDS011;8243;49.048;8.396;2023-02-08T07:00:59;10.10;;;6.83;;
16270;SDS011;8243;49.048;8.396;2023-02-08T07:03:25;10.47;;;7.27;;
16270;SDS011;8243;49.048;8.396;2023-02-08T07:05:50;8.83;;;6.27;;
16270;SDS011;8243;49.048;8.396;2023-02-08T07:08:16;9.37;;;6.63;;
16270;SDS011;8243;49.048;8.396;2023-02-08T07:10:41;10.60;;;7.00;;
16270;SDS011;8243;49.048;8.396;2023-02-08T07:13:07;9.47;;;6.73;;
16270;SDS011;8243;49.048;8.396;2023-02-08T07:15:32;10.70;;;7.17;;
16270;SDS011;8243;49.048;8.396;2023-02-08T07:17:59;10.53;;;7.10;;
16270;SDS011;8243;49.048;8.396;2023-02-08T07:20:25;11.60;;;7.93;;
16270;SDS011;8243;49.048;8.396;2023-02-08T07:22:50;10.80;;;6.90;;
16270;SDS011;8243;49.048;8.396;2023-02-08T07:25:16;11.00;;;7.30;;
16270;SDS011;8243;49.048;8.396;2023-02-08T07:27:41;11.97;;;7.90;;
16270;SDS011;8243;49.048;8.396;2023-02-08T07:30:07;10.27;;;7.17;;
16270;SDS011;8243;49.048;8.396;2023-02-08T07:32:33;10.93;;;6.50;;
16270;SDS011;8243;49.048;8.396;2023-02-08T07:34:59;10.90;;;7.80;;
16270;SDS011;8243;49.048;8.396;2023-02-08T07:37:25;7.37;;;6.03;;
16270;SDS011;8243;49.048;8.396;2023-02-08T07:39:51;10.87;;;7.30;;
16270;SDS011;8243;49.048;8.396;2023-02-08T07:42:17;8.13;;;6.23;;
16270;SDS011;8243;49.048;8.396;2023-02-08T07:44:42;10.63;;;7.77;;
16270;SDS011;8243;49.048;8.396;2023-02-08T07:47:08;10.33;;;6.57;;
16270;SDS011;8243;49.048;8.396;2023-02-08T07:49:34;8.30;;;5.83;;
16270;SDS011;8243;49.048;8.396;2023-02-08T07:52:00;11.30;;;7.63;;
16270;SDS011;8243;49.048;8.396;2023-02-08T07:54:27;7.70;;;5.77;;
16270;SDS011;8243;49.048;8.396;2023-02-08T07:56:53;10.57;;;7.73;;
16270;SDS011;8243;49.048;8.396;2023-02-08T07:59:18;10.23;;;7.43;;
16270;SDS011;8243;49.048;8.396;2023-02-08T08:01:44;10.13;;;5.60;;
16270;SDS011;8243;49.048;8.396;2023-02-08T08:04:09;10.53;;;7.53;;
16270;SDS011;8243;49.048;8.396;2023-02-08T08:06:35;9.37;;;6.80;;
16270;SDS011;8243;49.048;8.396;2023-02-08T08:09:00;9.17;;;6.10;;
16270;SDS011;8243;49.048;8.396;2023-02-08T08:11:26;10.43;;;7.47;;
16270;SDS011;8243;49.048;8.396;2023-02-08T08:13:51;11.03;;;8.20;;
16270;SDS011;8243;49.048;8.396;2023-02-08T08:16:17;10.53;;;7.27;;
16270;SDS011;8243;49.048;8.396;2023-02-08T08:18:43;11.60;;;7.23;;
16270;SDS011;8243;49.048;8.396;2023-02-08T08:21:09;10.60;;;7.37;;
16270;SDS011;8243;49.048;8.396;2023-02-08T08:23:35;13.07;;;7.80;;
16270;SDS011;8243;49.048;8.396;2023-02-08T08:26:08;12.10;;;8.13;;
16270;SDS011;8243;49.048;8.396;2023-02-08T08:28:35;9.30;;;6.77;;
16270;SDS011;8243;49.048;8.396;2023-02-08T08:31:01;10.47;;;6.27;;
16270;SDS011;8243;49.048;8.396;2023-02-08T08:33:26;10.57;;;6.90;;
16270;SDS011;8243;49.048;8.396;2023-02-08T08:35:52;11.27;;;6.43;;
16270;SDS011;8243;49.048;8.396;2023-02-08T08:38:17;10.07;;;7.23;;
16270;SDS011;8243;49.048;8.396;2023-02-08T08:40:43;11.27;;;8.03;;
16270;SDS011;8243;49.048;8.396;2023-02-08T08:43:08;9.70;;;7.07;;
16270;SDS011;8243;49.048;8.396;2023-02-08T08:45:34;14.00;;;8.00;;
16270;SDS011;8243;49.048;8.396;2023-02-08T08:48:00;11.60;;;7.93;;
16270;SDS011;8243;49.048;8.396;2023-02-08T08:50:27;10.33;;;6.23;;
16270;SDS011;8243;49.048;8.396;2023-02-08T08:52:53;8.63;;;5.20;;
16270;SDS011;8243;49.048;8.396;2023-02-08T08:55:18;9.87;;;6.90;;
16270;SDS011;8243;49.048;8.396;2023-02-08T08:57:44;10.73;;;7.77;;
16270;SDS011;8243;49.048;8.396;2023-02-08T09:00:09;10.90;;;7.30;;
16270;SDS011;8243;49.048;8.396;2023-02-08T09:02:35;11.63;;;8.00;;
16270;SDS011;8243;49.048;8.396;2023-02-08T09:05:01;10.83;;;7.80;;
16270;SDS011;8243;49.048;8.396;2023-02-08T09:07:29;11.20;;;8.70;;
16270;SDS011;8243;49.048;8.396;2023-02-08T09:09:54;12.40;;;8.00;;
16270;SDS011;8243;49.048;8.396;2023-02-08T09:12:20;11.47;;;8.03;;
16270;SDS011;8243;49.048;8.396;2023-02-08T09:14:46;10.50;;;7.03;;
16270;SDS011;8243;49.048;8.396;2023-02-08T09:17:11;10.87;;;7.27;;
16270;SDS011;8243;49.048;8.396;2023-02-08T09:19:37;10.93;;;7.60;;
16270;SDS011;8243;49.048;8.396;2023-02-08T09:22:04;10.67;;;8.07;;
16270;SDS011;8243;49.048;8.396;2023-02-08T09:24:31;10.77;;;8.47;;
16270;SDS011;8243;49.048;8.396;2023-02-08T09:26:57;11.30;;;6.63;;
16270;SDS011;8243;49.048;8.396;2023-02-08T09:29:22;12.30;;;7.20;;
16270;SDS011;8243;49.048;8.396;2023-02-08T09:31:48;12.17;;;8.23;;
16270;SDS011;8243;49.048;8.396;2023-02-08T09:34:14;11.17;;;8.37;;
16270;SDS011;8243;49.048;8.396;2023-02-08T09:36:39;9.87;;;7.27;;
16270;SDS011;8243;49.048;8.396;2023-02-08T09:39:16;8.47;;;5.83;;
16270;SDS011;8243;49.048;8.396;2023-02-08T09:50:35;10.90;;;6.53;;
16270;SDS011;8243;49.048;8.396;2023-02-08T09:52:46;12.97;;;8.70;;
16270;SDS011;8243;49.048;8.396;2023-02-08T09:57:57;11.03;;;7.63;;
16270;SDS011;8243;49.048;8.396;2023-02-08T10:00:35;8.50;;;6.03;;
16270;SDS011;8243;49.048;8.396;2023-02-08T10:03:05;10.03;;;7.50;;
16270;SDS011;8243;49.048;8.396;2023-02-08T10:05:48;10.03;;;6.37;;
16270;SDS011;8243;49.048;8.396;2023-02-08T10:08:13;11.23;;;7.07;;
16270;SDS011;8243;49.048;8.396;2023-02-08T10:10:42;10.00;;;7.07;;
16270;SDS011;8243;49.048;8.396;2023-02-08T10:16:17;9.53;;;6.80;;
16270;SDS011;8243;49.048;8.396;2023-02-08T10:19:11;9.63;;;7.17;;
16270;SDS011;8243;49.048;8.396;2023-02-08T10:22:11;9.93;;;6.60;;
16270;SDS011;8243;49.048;8.396;2023-02-08T10:27:46;8.50;;;6.63;;
16270;SDS011;8243;49.048;8.396;2023-02-08T10:33:17;10.50;;;7.20;;
16270;SDS011;8243;49.048;8.396;2023-02-08T10:35:53;11.20;;;7.90;;
16270;SDS011;8243;49.048;8.396;2023-02-08T10:40:49;8.90;;;5.23;;
16270;SDS011;8243;49.048;8.396;2023-02-08T10:45:53;10.03;;;7.57;;
16270;SDS011;8243;49.048;8.396;2023-02-08T10:48:43;9.67;;;7.17;;
16270;SDS011;8243;49.048;8.396;2023-02-08T10:51:27;8.37;;;6.37;;
16270;SDS011;8243;49.048;8.396;2023-02-08T10:53:54;10.30;;;7.33;;
16270;SDS011;8243;49.048;8.396;2023-02-08T10:56:26;9.40;;;6.60;;
16270;SDS011;8243;49.048;8.396;2023-02-08T10:58:53;9.47;;;6.97;;
16270;SDS011;8243;49.048;8.396;2023-02-08T11:01:19;9.40;;;7.23;;
16270;SDS011;8243;49.048;8.396;2023-02-08T11:04:01;12.93;;;7.00;;
16270;SDS011;8243;49.048;8.396;2023-02-08T11:06:34;10.10;;;7.27;;
16270;SDS011;8243;49.048;8.396;2023-02-08T11:08:59;10.97;;;7.37;;
16270;SDS011;8243;49.048;8.396;2023-02-08T11:11:25;12.60;;;8.10;;
16270;SDS011;8243;49.048;8.396;2023-02-08T11:13:51;10.67;;;7.60;;
16270;SDS011;8243;49.048;8.396;2023-02-08T11:16:21;9.13;;;7.20;;
16270;SDS011;8243;49.048;8.396;2023-02-08T11:18:52;9.80;;;7.53;;
16270;SDS011;8243;49.048;8.396;2023-02-08T11:21:25;10.50;;;6.53;;
16270;SDS011;8243;49.048;8.396;2023-02-08T11:23:53;10.20;;;7.47;;
16270;SDS011;8243;49.048;8.396;2023-02-08T11:29:16;13.97;;;7.47;;
16270;SDS011;8243;49.048;8.396;2023-02-08T11:34:22;9.73;;;7.17;;
16270;SDS011;8243;49.048;8.396;2023-02-08T11:37:04;11.00;;;7.40;;
16270;SDS011;8243;49.048;8.396;2023-02-08T11:39:54;10.47;;;7.77;;
16270;SDS011;8243;49.048;8.396;2023-02-08T11:42:25;10.63;;;7.03;;
16270;SDS011;8243;49.048;8.396;2023-02-08T11:44:53;5.93;;;4.33;;
16270;SDS011;8243;49.048;8.396;2023-02-08T11:47:24;11.00;;;7.50;;
16270;SDS011;8243;49.048;8.396;2023-02-08T11:49:56;11.30;;;7.67;;
16270;SDS011;8243;49.048;8.396;2023-02-08T11:52:32;7.80;;;5.40;;
16270;SDS011;8243;49.048;8.396;2023-02-08T12:00:37;10.30;;;7.03;;
16270;SDS011;8243;49.048;8.396;2023-02-08T12:03:06;12.03;;;7.60;;
16270;SDS011;8243;49.048;8.396;2023-02-08T12:08:26;11.00;;;7.30;;
16270;SDS011;8243;49.048;8.396;2023-02-08T12:11:06;10.93;;;6.57;;
16270;SDS011;8243;49.048;8.396;2023-02-08T12:13:38;10.07;;;7.20;;
16270;SDS011;8243;49.048;8.396;2023-02-08T12:16:37;11.77;;;7.27;;
16270;SDS011;8243;49.048;8.396;2023-02-08T12:22:17;9.70;;;7.40;;
16270;SDS011;8243;49.048;8.396;2023-02-08T12:27:45;9.57;;;6.43;;
16270;SDS011;8243;49.048;8.396;2023-02-08T12:30:41;10.70;;;7.60;;
16270;SDS011;8243;49.048;8.396;2023-02-08T12:35:51;11.30;;;7.50;;
16270;SDS011;8243;49.048;8.396;2023-02-08T12:41:42;10.30;;;5.63;;
16270;SDS011;8243;49.048;8.396;2023-02-08T12:50:32;10.37;;;7.23;;
16270;SDS011;8243;49.048;8.396;2023-02-08T12:55:46;11.80;;;7.87;;
16270;SDS011;8243;49.048;8.396;2023-02-08T13:00:45;9.97;;;7.50;;
16270;SDS011;8243;49.048;8.396;2023-02-08T13:05:56;9.27;;;6.27;;
16270;SDS011;8243;49.048;8.396;2023-02-08T13:10:48;12.27;;;7.97;;
16270;SDS011;8243;49.048;8.396;2023-02-08T13:13:43;9.17;;;6.80;;
16270;SDS011;8243;49.048;8.396;2023-02-08T13:21:41;11.67;;;7.97;;
16270;SDS011;8243;49.048;8.396;2023-02-08T13:24:14;10.90;;;7.40;;
16270;SDS011;8243;49.048;8.396;2023-02-08T13:26:50;9.67;;;6.47;;
16270;SDS011;8243;49.048;8.396;2023-02-08T13:29:16;9.03;;;6.63;;
16270;SDS011;8243;49.048;8.396;2023-02-08T13:31:45;7.10;;;5.10;;
16270;SDS011;8243;49.048;8.396;2023-02-08T13:34:27;10.63;;;7.30;;
16270;SDS011;8243;49.048;8.396;2023-02-08T13:36:58;10.80;;;7.13;;
16270;SDS011;8243;49.048;8.396;2023-02-08T13:39:41;13.17;;;8.63;;
16270;SDS011;8243;49.048;8.396;2023-02-08T13:45:07;8.50;;;6.37;;
16270;SDS011;8243;49.048;8.396;2023-02-08T13:48:17;8.27;;;6.10;;
16270;SDS011;8243;49.048;8.396;2023-02-08T13:52:58;9.83;;;6.50;;
16270;SDS011;8243;49.048;8.396;2023-02-08T13:58:04;10.50;;;6.87;;
16270;SDS011;8243;49.048;8.396;2023-02-08T14:03:27;7.50;;;5.33;;
16270;SDS011;8243;49.048;8.396;2023-02-08T14:11:09;7.83;;;6.03;;
16270;SDS011;8243;49.048;8.396;2023-02-08T14:13:57;8.53;;;5.33;;
16270;SDS011;8243;49.048;8.396;2023-02-08T14:16:31;8.20;;;6.17;;
16270;SDS011;8243;49.048;8.396;2023-02-08T14:19:03;8.37;;;5.70;;
16270;SDS011;8243;49.048;8.396;2023-02-08T14:21:43;6.57;;;5.00;;
16270;SDS011;8243;49.048;8.396;2023-02-08T14:24:19;9.40;;;6.83;;
16270;SDS011;8243;49.048;8.396;2023-02-08T14:26:47;8.50;;;5.70;;
16270;SDS011;8243;49.048;8.396;2023-02-08T14:29:23;7.43;;;4.90;;
16270;SDS011;8243;49.048;8.396;2023-02-08T14:31:54;9.80;;;6.83;;
16270;SDS011;8243;49.048;8.396;2023-02-08T14:34:22;5.93;;;4.77;;
16270;SDS011;8243;49.048;8.396;2023-02-08T14:37:00;8.40;;;6.30;;
16270;SDS011;8243;49.048;8.396;2023-02-08T14:39:35;9.27;;;6.03;;
16270;SDS011;8243;49.048;8.396;2023-02-08T14:42:02;11.70;;;5.73;;
16270;SDS011;8243;49.048;8.396;2023-02-08T14:47:02;8.27;;;5.93;;
16270;SDS011;8243;49.048;8.396;2023-02-08T14:49:28;7.30;;;5.67;;
16270;SDS011;8243;49.048;8.396;2023-02-08T14:52:04;7.83;;;5.80;;
16270;SDS011;8243;49.048;8.396;2023-02-08T14:54:36;7.80;;;5.17;;
16270;SDS011;8243;49.048;8.396;2023-02-08T14:57:24;8.37;;;5.73;;
16270;SDS011;8243;49.048;8.396;2023-02-08T14:59:53;8.37;;;5.57;;
16270;SDS011;8243;49.048;8.396;2023-02-08T15:02:22;7.47;;;5.90;;
16270;SDS011;8243;49.048;8.396;2023-02-08T15:04:50;7.47;;;5.40;;
16270;SDS011;8243;49.048;8.396;2023-02-08T15:07:26;8.10;;;5.40;;
16270;SDS011;8243;49.048;8.396;2023-02-08T15:10:13;7.73;;;5.43;;
16270;SDS011;8243;49.048;8.396;2023-02-08T15:12:42;8.07;;;5.00;;
16270;SDS011;8243;49.048;8.396;2023-02-08T15:17:59;7.90;;;5.50;;
16270;SDS011;8243;49.048;8.396;2023-02-08T15:20:30;5.67;;;4.30;;
16270;SDS011;8243;49.048;8.396;2023-02-08T15:23:04;6.47;;;5.13;;
16270;SDS011;8243;49.048;8.396;2023-02-08T15:25:41;7.47;;;5.23;;
16270;SDS011;8243;49.048;8.396;2023-02-08T15:28:18;10.07;;;5.30;;
16270;SDS011;8243;49.048;8.396;2023-02-08T15:30:51;6.67;;;5.10;;
16270;SDS011;8243;49.048;8.396;2023-02-08T15:33:30;8.47;;;5.00;;
16270;SDS011;8243;49.048;8.396;2023-02-08T15:36:00;7.83;;;4.93;;
16270;SDS011;8243;49.048;8.396;2023-02-08T15:38:29;6.20;;;4.67;;
16270;SDS011;8243;49.048;8.396;2023-02-08T15:40:58;8.07;;;5.00;;
16270;SDS011;8243;49.048;8.396;2023-02-08T15:43:27;6.03;;;4.73;;
16270;SDS011;8243;49.048;8.396;2023-02-08T15:45:56;6.53;;;4.80;;
16270;SDS011;8243;49.048;8.396;2023-02-08T15:48:23;8.23;;;5.40;;
16270;SDS011;8243;49.048;8.396;2023-02-08T15:50:50;6.20;;;4.33;;
16270;SDS011;8243;49.048;8.396;2023-02-08T15:53:17;8.93;;;5.50;;
16270;SDS011;8243;49.048;8.396;2023-02-08T15:55:51;7.83;;;4.77;;
16270;SDS011;8243;49.048;8.396;2023-02-08T16:00:52;7.80;;;4.70;;
16270;SDS011;8243;49.048;8.396;2023-02-08T16:03:20;7.43;;;5.03;;
16270;SDS011;8243;49.048;8.396;2023-02-08T16:05:51;6.17;;;4.90;;
16270;SDS011;8243;49.048;8.396;2023-02-08T16:08:24;7.33;;;4.93;;
16270;SDS011;8243;49.048;8.396;2023-02-08T16:10:53;7.07;;;4.63;;
16270;SDS011;8243;49.048;8.396;2023-02-08T16:13:33;6.30;;;4.50;;
16270;SDS011;8243;49.048;8.396;2023-02-08T16:16:21;6.50;;;4.10;;
16270;SDS011;8243;49.048;8.396;2023-02-08T16:19:02;5.17;;;4.07;;
16270;SDS011;8243;49.048;8.396;2023-02-08T16:21:32;6.30;;;4.30;;
16270;SDS011;8243;49.048;8.396;2023-02-08T16:23:59;6.43;;;4.07;;
16270;SDS011;8243;49.048;8.396;2023-02-08T16:26:34;7.33;;;4.67;;
16270;SDS011;8243;49.048;8.396;2023-02-08T16:29:05;6.03;;;4.37;;
16270;SDS011;8243;49.048;8.396;2023-02-08T16:31:41;10.73;;;5.03;;
16270;SDS011;8243;49.048;8.396;2023-02-08T16:34:16;6.07;;;4.40;;
16270;SDS011;8243;49.048;8.396;2023-02-08T16:36:44;5.33;;;4.03;;
16270;SDS011;8243;49.048;8.396;2023-02-08T16:39:19;5.43;;;4.50;;
16270;SDS011;8243;49.048;8.396;2023-02-08T16:46:50;6.57;;;4.10;;
16270;SDS011;8243;49.048;8.396;2023-02-08T16:49:15;6.73;;;4.57;;
16270;SDS011;8243;49.048;8.396;2023-02-08T16:51:41;6.00;;;4.60;;
16270;SDS011;8243;49.048;8.396;2023-02-08T16:54:19;5.40;;;4.33;;
16270;SDS011;8243;49.048;8.396;2023-02-08T16:56:46;5.37;;;4.13;;
16270;SDS011;8243;49.048;8.396;2023-02-08T16:59:17;7.13;;;4.67;;
16270;SDS011;8243;49.048;8.396;2023-02-08T17:01:43;6.87;;;4.90;;
16270;SDS011;8243;49.048;8.396;2023-02-08T17:04:12;11.80;;;10.60;;
16270;SDS011;8243;49.048;8.396;2023-02-08T17:06:39;8.60;;;4.97;;
16270;SDS011;8243;49.048;8.396;2023-02-08T17:09:07;6.00;;;4.47;;
16270;SDS011;8243;49.048;8.396;2023-02-08T17:11:35;6.57;;;5.40;;
16270;SDS011;8243;49.048;8.396;2023-02-08T17:14:01;6.67;;;5.70;;
16270;SDS011;8243;49.048;8.396;2023-02-08T17:16:27;9.30;;;6.47;;
16270;SDS011;8243;49.048;8.396;2023-02-08T17:18:54;7.23;;;4.80;;
16270;SDS011;8243;49.048;8.396;2023-02-08T17:21:21;8.67;;;4.63;;